createdAt,value
2017-11-16T00:00:20.610Z,11.45
2017-11-16T00:00:46.785Z,11.47
2017-11-16T00:01:12.940Z,11.44
2017-11-16T00:01:39.078Z,11.51
2017-11-16T00:02:05.225Z,11.48
2017-11-16T00:02:31.365Z,11.51
2017-11-16T00:02:57.532Z,11.47
2017-11-16T00:03:23.683Z,11.57
2017-11-16T00:03:49.838Z,11.62
2017-11-16T00:04:15.981Z,11.65
2017-11-16T00:04:42.122Z,11.54
2017-11-16T00:05:08.273Z,11.59
2017-11-16T00:05:34.415Z,11.5
2017-11-16T00:06:00.565Z,11.51
2017-11-16T00:06:26.705Z,11.52
2017-11-16T00:06:52.847Z,11.6
2017-11-16T00:07:18.998Z,11.57
2017-11-16T00:07:45.144Z,11.47
2017-11-16T00:08:11.290Z,11.55
2017-11-16T00:08:37.442Z,11.45
2017-11-16T00:09:03.588Z,11.54
2017-11-16T00:09:29.731Z,11.52
2017-11-16T00:09:55.877Z,11.52
2017-11-16T00:10:22.027Z,11.5
2017-11-16T00:10:48.166Z,11.55
2017-11-16T00:11:14.317Z,11.54
2017-11-16T00:11:40.456Z,11.5
2017-11-16T00:12:06.606Z,11.55
2017-11-16T00:12:32.772Z,11.47
2017-11-16T00:12:58.930Z,11.6
2017-11-16T00:13:25.068Z,11.68
2017-11-16T00:13:51.219Z,11.65
2017-11-16T00:14:17.367Z,11.62
2017-11-16T00:14:43.560Z,11.57
2017-11-16T00:15:09.705Z,11.6
2017-11-16T00:15:35.855Z,11.7
2017-11-16T00:16:01.999Z,11.68
2017-11-16T00:16:28.145Z,11.69
2017-11-16T00:16:54.293Z,11.6
2017-11-16T00:17:20.438Z,11.7
2017-11-16T00:17:46.581Z,11.63
2017-11-16T00:18:12.756Z,11.72
2017-11-16T00:18:38.923Z,11.68
2017-11-16T00:19:05.064Z,11.68
2017-11-16T00:19:31.213Z,11.6
2017-11-16T00:19:57.349Z,11.68
2017-11-16T00:20:23.495Z,11.66
2017-11-16T00:20:49.642Z,11.7
2017-11-16T00:21:15.785Z,11.63
2017-11-16T00:21:41.933Z,11.6
2017-11-16T00:22:08.080Z,11.66
2017-11-16T00:22:34.222Z,11.66
2017-11-16T00:23:00.365Z,11.65
2017-11-16T00:23:26.515Z,11.6
2017-11-16T00:23:52.657Z,11.57
2017-11-16T00:24:18.804Z,11.5
2017-11-16T00:24:44.948Z,11.6
2017-11-16T00:25:11.125Z,11.68
2017-11-16T00:25:37.270Z,11.66
2017-11-16T00:26:03.406Z,11.59
2017-11-16T00:26:29.570Z,11.57
2017-11-16T00:26:55.716Z,11.68
2017-11-16T00:27:21.888Z,11.63
2017-11-16T00:27:48.034Z,11.6
2017-11-16T00:28:14.181Z,11.7
2017-11-16T00:28:40.326Z,11.63
2017-11-16T00:29:06.467Z,11.59
2017-11-16T00:29:32.626Z,11.7
2017-11-16T00:29:58.764Z,11.66
2017-11-16T00:30:24.914Z,11.63
2017-11-16T00:30:51.062Z,11.54
2017-11-16T00:31:17.204Z,11.57
2017-11-16T00:31:43.360Z,11.62
2017-11-16T00:32:09.528Z,11.65
2017-11-16T00:32:35.666Z,11.6
2017-11-16T00:33:01.803Z,11.5
2017-11-16T00:33:27.972Z,11.47
2017-11-16T00:33:54.120Z,11.48
2017-11-16T00:34:20.264Z,11.54
2017-11-16T00:34:46.415Z,11.68
2017-11-16T00:35:12.553Z,11.72
2017-11-16T00:35:38.707Z,11.63
2017-11-16T00:36:04.859Z,11.68
2017-11-16T00:36:31.053Z,11.59
2017-11-16T00:36:57.196Z,11.68
2017-11-16T00:37:23.350Z,11.69
2017-11-16T00:37:49.491Z,11.66
2017-11-16T00:38:15.637Z,11.65
2017-11-16T00:38:41.786Z,11.62
2017-11-16T00:39:07.927Z,11.63
2017-11-16T00:39:34.078Z,11.54
2017-11-16T00:40:00.217Z,11.62
2017-11-16T00:40:26.369Z,11.6
2017-11-16T00:40:52.509Z,11.66
2017-11-16T00:41:18.654Z,11.59
2017-11-16T00:41:44.798Z,11.63
2017-11-16T00:42:10.948Z,11.68
2017-11-16T00:42:37.086Z,11.63
2017-11-16T00:43:03.228Z,11.69
2017-11-16T00:43:29.381Z,11.75
2017-11-16T00:43:55.525Z,11.7
2017-11-16T00:44:21.668Z,11.66
2017-11-16T00:44:47.819Z,11.68
2017-11-16T00:45:13.969Z,11.6
2017-11-16T00:45:40.115Z,11.6
2017-11-16T00:46:06.264Z,11.62
2017-11-16T00:46:32.409Z,11.68
2017-11-16T00:46:58.544Z,11.62
2017-11-16T00:47:24.690Z,11.66
2017-11-16T00:47:50.841Z,11.6
2017-11-16T00:48:17.011Z,11.69
2017-11-16T00:48:43.152Z,11.69
2017-11-16T00:49:09.300Z,11.68
2017-11-16T00:49:35.440Z,11.62
2017-11-16T00:50:01.623Z,11.62
2017-11-16T00:50:27.765Z,11.54
2017-11-16T00:50:53.920Z,11.57
2017-11-16T00:51:20.090Z,11.69
2017-11-16T00:51:46.240Z,11.72
2017-11-16T00:52:12.384Z,11.68
2017-11-16T00:52:38.602Z,11.66
2017-11-16T00:53:04.814Z,11.72
2017-11-16T00:53:31.055Z,11.75
2017-11-16T00:53:57.322Z,11.78
2017-11-16T00:54:23.639Z,11.77
2017-11-16T00:54:49.905Z,11.83
2017-11-16T00:55:16.045Z,11.8
2017-11-16T00:55:42.191Z,11.7
2017-11-16T00:56:08.345Z,11.8
2017-11-16T00:56:34.509Z,11.83
2017-11-16T00:57:00.653Z,11.75
2017-11-16T00:57:26.803Z,11.75
2017-11-16T00:57:52.970Z,11.69
2017-11-16T00:58:19.145Z,11.59
2017-11-16T00:58:45.262Z,11.62
2017-11-16T00:59:11.407Z,11.69
2017-11-16T00:59:37.558Z,11.65
2017-11-16T01:00:03.697Z,11.7
2017-11-16T01:00:29.843Z,11.75
2017-11-16T01:00:55.994Z,11.75
2017-11-16T01:01:22.138Z,11.81
2017-11-16T01:01:48.277Z,11.73
2017-11-16T01:02:14.430Z,11.75
2017-11-16T01:02:40.569Z,11.66
2017-11-16T01:03:06.739Z,11.69
2017-11-16T01:03:32.889Z,11.66
2017-11-16T01:03:59.027Z,11.78
2017-11-16T01:04:25.177Z,11.75
2017-11-16T01:04:51.317Z,11.7
2017-11-16T01:05:17.470Z,11.77
2017-11-16T01:05:43.619Z,11.77
2017-11-16T01:06:09.774Z,11.75
2017-11-16T01:06:35.909Z,11.75
2017-11-16T01:07:02.055Z,11.86
2017-11-16T01:07:28.230Z,11.83
2017-11-16T01:07:54.370Z,11.83
2017-11-16T01:08:20.523Z,11.73
2017-11-16T01:08:46.666Z,11.8
2017-11-16T01:09:12.813Z,11.72
2017-11-16T01:09:38.956Z,11.69
2017-11-16T01:10:05.123Z,11.77
2017-11-16T01:10:31.286Z,11.75
2017-11-16T01:10:57.434Z,11.84
2017-11-16T01:11:23.579Z,11.86
2017-11-16T01:11:49.699Z,11.86
2017-11-16T01:12:15.824Z,11.81
2017-11-16T01:12:41.954Z,11.83
2017-11-16T01:13:08.074Z,11.78
2017-11-16T01:13:34.195Z,11.77
2017-11-16T01:14:00.312Z,11.87
2017-11-16T01:14:26.444Z,11.81
2017-11-16T01:14:52.556Z,11.77
2017-11-16T01:15:18.680Z,11.8
2017-11-16T01:15:44.813Z,11.77
2017-11-16T01:16:10.953Z,11.8
2017-11-16T01:16:37.079Z,11.8
2017-11-16T01:17:03.204Z,11.88
2017-11-16T01:17:29.323Z,11.8
2017-11-16T01:17:55.448Z,11.81
2017-11-16T01:18:21.565Z,11.75
2017-11-16T01:18:47.690Z,11.8
2017-11-16T01:19:13.815Z,11.72
2017-11-16T01:19:39.932Z,11.78
2017-11-16T01:20:06.053Z,11.75
2017-11-16T01:20:32.175Z,11.69
2017-11-16T01:20:58.295Z,11.78
2017-11-16T01:21:24.424Z,11.69
2017-11-16T01:21:50.541Z,11.7
2017-11-16T01:22:16.667Z,11.68
2017-11-16T01:22:42.792Z,11.73
2017-11-16T01:23:08.910Z,11.7
2017-11-16T01:23:35.028Z,11.68
2017-11-16T01:24:01.145Z,11.8
2017-11-16T01:24:27.271Z,11.65
2017-11-16T01:24:53.400Z,11.63
2017-11-16T01:25:19.512Z,11.7
2017-11-16T01:25:45.640Z,11.68
2017-11-16T01:26:11.751Z,11.72
2017-11-16T01:26:37.895Z,11.81
2017-11-16T01:27:04.035Z,11.69
2017-11-16T01:27:30.143Z,11.75
2017-11-16T01:27:56.267Z,11.8
2017-11-16T01:28:22.393Z,11.72
2017-11-16T01:28:48.510Z,11.8
2017-11-16T01:29:14.629Z,11.77
2017-11-16T01:29:40.754Z,11.75
2017-11-16T01:30:06.868Z,11.77
2017-11-16T01:30:32.994Z,11.77
2017-11-16T01:30:59.118Z,11.75
2017-11-16T01:31:25.237Z,11.77
2017-11-16T01:31:51.362Z,11.78
2017-11-16T01:32:17.479Z,11.77
2017-11-16T01:32:43.607Z,11.8
2017-11-16T01:33:09.725Z,11.81
2017-11-16T01:33:35.846Z,11.84
2017-11-16T01:34:01.970Z,11.75
2017-11-16T01:34:28.092Z,11.8
2017-11-16T01:34:54.217Z,11.75
2017-11-16T01:35:20.335Z,11.81
2017-11-16T01:35:46.462Z,11.77
2017-11-16T01:36:12.585Z,11.78
2017-11-16T01:36:38.705Z,11.77
2017-11-16T01:37:04.829Z,11.75
2017-11-16T01:37:30.949Z,11.84
2017-11-16T01:37:57.096Z,11.88
2017-11-16T01:38:23.236Z,11.78
2017-11-16T01:38:49.382Z,11.87
2017-11-16T01:39:15.501Z,11.88
2017-11-16T01:39:41.621Z,11.8
2017-11-16T01:40:07.755Z,11.77
2017-11-16T01:40:33.869Z,11.87
2017-11-16T01:40:59.996Z,11.8
2017-11-16T01:41:26.122Z,11.83
2017-11-16T01:41:52.243Z,11.87
2017-11-16T01:42:18.365Z,11.83
2017-11-16T01:42:44.477Z,11.81
2017-11-16T01:43:10.605Z,11.9
2017-11-16T01:43:36.722Z,11.94
2017-11-16T01:44:02.842Z,11.81
2017-11-16T01:44:28.966Z,11.81
2017-11-16T01:44:55.086Z,11.75
2017-11-16T01:45:21.208Z,11.8
2017-11-16T01:45:47.352Z,11.75
2017-11-16T01:46:13.482Z,11.81
2017-11-16T01:46:39.623Z,11.87
2017-11-16T01:47:05.747Z,11.75
2017-11-16T01:47:31.894Z,11.72
2017-11-16T01:47:58.008Z,11.75
2017-11-16T01:48:24.125Z,11.81
2017-11-16T01:48:50.250Z,11.7
2017-11-16T01:49:16.366Z,11.65
2017-11-16T01:49:42.496Z,11.72
2017-11-16T01:50:08.642Z,11.69
2017-11-16T01:50:34.765Z,11.65
2017-11-16T01:51:00.906Z,11.73
2017-11-16T01:51:27.046Z,11.78
2017-11-16T01:51:53.174Z,11.78
2017-11-16T01:52:19.289Z,11.8
2017-11-16T01:52:45.416Z,11.77
2017-11-16T01:53:11.533Z,11.8
2017-11-16T01:53:37.654Z,11.87
2017-11-16T01:54:03.779Z,11.87
2017-11-16T01:54:29.900Z,11.88
2017-11-16T01:54:56.027Z,11.84
2017-11-16T01:55:22.151Z,11.86
2017-11-16T01:55:48.310Z,11.87
2017-11-16T01:56:14.438Z,11.86
2017-11-16T01:56:40.555Z,11.88
2017-11-16T01:57:06.696Z,11.84
2017-11-16T01:57:32.818Z,11.83
2017-11-16T01:57:58.941Z,11.88
2017-11-16T01:58:25.087Z,11.84
2017-11-16T01:58:51.203Z,11.78
2017-11-16T01:59:17.335Z,11.75
2017-11-16T01:59:43.456Z,11.8
2017-11-16T02:00:09.586Z,11.87
2017-11-16T02:00:35.721Z,11.77
2017-11-16T02:01:01.820Z,11.88
2017-11-16T02:01:27.937Z,11.94
2017-11-16T02:01:54.061Z,11.94
2017-11-16T02:02:20.189Z,11.83
2017-11-16T02:02:46.306Z,11.8
2017-11-16T02:03:12.435Z,11.77
2017-11-16T02:03:38.550Z,11.75
2017-11-16T02:04:04.676Z,11.84
2017-11-16T02:04:30.800Z,11.78
2017-11-16T02:04:56.922Z,11.84
2017-11-16T02:05:23.041Z,11.81
2017-11-16T02:05:49.198Z,11.78
2017-11-16T02:06:15.319Z,11.78
2017-11-16T02:06:41.444Z,11.7
2017-11-16T02:07:07.563Z,11.75
2017-11-16T02:07:33.677Z,11.75
2017-11-16T02:07:59.804Z,11.8
2017-11-16T02:08:25.920Z,11.72
2017-11-16T02:08:52.048Z,11.65
2017-11-16T02:09:18.167Z,11.7
2017-11-16T02:09:44.289Z,11.65
2017-11-16T02:10:10.408Z,11.68
2017-11-16T02:10:36.535Z,11.68
2017-11-16T02:11:02.655Z,11.7
2017-11-16T02:11:28.795Z,11.72
2017-11-16T02:11:54.931Z,11.72
2017-11-16T02:12:21.049Z,11.68
2017-11-16T02:12:47.171Z,11.62
2017-11-16T02:13:13.285Z,11.63
2017-11-16T02:13:39.425Z,11.78
2017-11-16T02:14:05.527Z,11.65
2017-11-16T02:14:31.650Z,11.69
2017-11-16T02:14:57.775Z,11.68
2017-11-16T02:15:23.894Z,11.69
2017-11-16T02:15:50.019Z,11.6
2017-11-16T02:16:16.145Z,11.69
2017-11-16T02:16:42.260Z,11.66
2017-11-16T02:17:08.389Z,11.68
2017-11-16T02:17:34.512Z,11.68
2017-11-16T02:18:00.636Z,11.66
2017-11-16T02:18:26.750Z,11.7
2017-11-16T02:18:52.871Z,11.72
2017-11-16T02:19:18.991Z,11.7
2017-11-16T02:19:45.116Z,11.7
2017-11-16T02:20:11.232Z,11.7
2017-11-16T02:20:37.349Z,11.7
2017-11-16T02:21:03.496Z,11.72
2017-11-16T02:21:29.619Z,11.65
2017-11-16T02:21:55.737Z,11.66
2017-11-16T02:22:21.856Z,11.69
2017-11-16T02:22:47.986Z,11.6
2017-11-16T02:23:14.114Z,11.68
2017-11-16T02:23:40.223Z,11.63
2017-11-16T02:24:06.354Z,11.62
2017-11-16T02:24:32.478Z,11.69
2017-11-16T02:24:58.602Z,11.66
2017-11-16T02:25:24.721Z,11.8
2017-11-16T02:25:50.848Z,11.72
2017-11-16T02:26:16.965Z,11.72
2017-11-16T02:26:43.092Z,11.75
2017-11-16T02:27:09.208Z,11.7
2017-11-16T02:27:35.338Z,11.73
2017-11-16T02:28:01.453Z,11.7
2017-11-16T02:28:27.577Z,11.7
2017-11-16T02:28:53.698Z,11.69
2017-11-16T02:29:19.815Z,11.78
2017-11-16T02:29:45.942Z,11.81
2017-11-16T02:30:12.069Z,11.8
2017-11-16T02:30:38.188Z,11.75
2017-11-16T02:31:04.303Z,11.77
2017-11-16T02:31:30.429Z,11.77
2017-11-16T02:31:56.548Z,11.77
2017-11-16T02:32:22.676Z,11.86
2017-11-16T02:32:48.820Z,11.72
2017-11-16T02:33:14.938Z,11.72
2017-11-16T02:33:41.061Z,11.75
2017-11-16T02:34:07.190Z,11.68
2017-11-16T02:34:33.317Z,11.7
2017-11-16T02:34:59.432Z,11.68
2017-11-16T02:35:25.556Z,11.69
2017-11-16T02:35:51.677Z,11.63
2017-11-16T02:36:17.805Z,11.77
2017-11-16T02:36:43.952Z,11.65
2017-11-16T02:37:10.071Z,11.66
2017-11-16T02:37:36.186Z,11.65
2017-11-16T02:38:02.313Z,11.66
2017-11-16T02:38:28.446Z,11.55
2017-11-16T02:38:54.567Z,11.63
2017-11-16T02:39:20.704Z,11.51
2017-11-16T02:39:46.823Z,11.47
2017-11-16T02:40:12.949Z,11.57
2017-11-16T02:40:39.070Z,11.66
2017-11-16T02:41:05.188Z,11.59
2017-11-16T02:41:31.313Z,11.48
2017-11-16T02:41:57.476Z,11.6
2017-11-16T02:42:23.626Z,11.57
2017-11-16T02:42:49.784Z,11.48
2017-11-16T02:43:15.899Z,11.6
2017-11-16T02:43:42.028Z,11.59
2017-11-16T02:44:08.145Z,11.6
2017-11-16T02:44:34.261Z,11.66
2017-11-16T02:45:00.384Z,11.5
2017-11-16T02:45:26.504Z,11.57
2017-11-16T02:45:52.628Z,11.54
2017-11-16T02:46:18.744Z,11.59
2017-11-16T02:46:44.869Z,11.52
2017-11-16T02:47:10.994Z,11.48
2017-11-16T02:47:37.111Z,11.51
2017-11-16T02:48:03.240Z,11.59
2017-11-16T02:48:29.360Z,11.51
2017-11-16T02:48:55.501Z,11.48
2017-11-16T02:49:21.652Z,11.52
2017-11-16T02:49:47.769Z,11.51
2017-11-16T02:50:13.893Z,11.48
2017-11-16T02:50:40.013Z,11.4
2017-11-16T02:51:06.131Z,11.37
2017-11-16T02:51:32.255Z,11.36
2017-11-16T02:51:58.379Z,11.48
2017-11-16T02:52:24.520Z,11.5
2017-11-16T02:52:50.617Z,11.41
2017-11-16T02:53:16.738Z,11.4
2017-11-16T02:53:42.864Z,11.4
2017-11-16T02:54:08.985Z,11.4
2017-11-16T02:54:35.121Z,11.47
2017-11-16T02:55:01.248Z,11.41
2017-11-16T02:55:27.395Z,11.4
2017-11-16T02:55:53.514Z,11.3
2017-11-16T02:56:19.631Z,11.4
2017-11-16T02:56:45.761Z,11.44
2017-11-16T02:57:11.900Z,11.4
2017-11-16T02:57:38.048Z,11.47
2017-11-16T02:58:04.165Z,11.57
2017-11-16T02:58:30.292Z,11.55
2017-11-16T02:58:56.409Z,11.5
2017-11-16T02:59:22.563Z,11.44
2017-11-16T02:59:48.677Z,11.36
2017-11-16T03:00:14.796Z,11.43
2017-11-16T03:00:40.919Z,11.5
2017-11-16T03:01:07.046Z,11.51
2017-11-16T03:01:33.177Z,11.57
2017-11-16T03:01:59.279Z,11.6
2017-11-16T03:02:25.417Z,11.55
2017-11-16T03:02:51.531Z,11.55
2017-11-16T03:03:17.661Z,11.51
2017-11-16T03:03:43.778Z,11.59
2017-11-16T03:04:09.894Z,11.48
2017-11-16T03:04:36.020Z,11.48
2017-11-16T03:05:02.143Z,11.5
2017-11-16T03:05:28.254Z,11.45
2017-11-16T03:05:54.376Z,11.44
2017-11-16T03:06:20.501Z,11.47
2017-11-16T03:06:46.621Z,11.37
2017-11-16T03:07:12.741Z,11.44
2017-11-16T03:07:38.861Z,11.4
2017-11-16T03:08:04.987Z,11.41
2017-11-16T03:08:31.114Z,11.45
2017-11-16T03:08:57.229Z,11.41
2017-11-16T03:09:23.362Z,11.43
2017-11-16T03:09:49.485Z,11.41
2017-11-16T03:10:15.626Z,11.5
2017-11-16T03:10:41.751Z,11.52
2017-11-16T03:11:07.876Z,11.5
2017-11-16T03:11:33.994Z,11.44
2017-11-16T03:12:00.121Z,11.5
2017-11-16T03:12:26.239Z,11.5
2017-11-16T03:12:52.369Z,11.43
2017-11-16T03:13:18.487Z,11.45
2017-11-16T03:13:44.612Z,11.41
2017-11-16T03:14:10.753Z,11.43
2017-11-16T03:14:36.882Z,11.41
2017-11-16T03:15:03.008Z,11.45
2017-11-16T03:15:29.119Z,11.36
2017-11-16T03:15:55.246Z,11.4
2017-11-16T03:16:21.362Z,11.43
2017-11-16T03:16:47.491Z,11.43
2017-11-16T03:17:13.610Z,11.4
2017-11-16T03:17:39.737Z,11.37
2017-11-16T03:18:05.861Z,11.41
2017-11-16T03:18:31.979Z,11.41
2017-11-16T03:18:58.099Z,11.32
2017-11-16T03:19:24.243Z,11.29
2017-11-16T03:19:50.368Z,11.22
2017-11-16T03:20:16.483Z,11.26
2017-11-16T03:20:42.610Z,11.3
2017-11-16T03:21:08.727Z,11.26
2017-11-16T03:21:34.849Z,11.23
2017-11-16T03:22:00.968Z,11.29
2017-11-16T03:22:27.095Z,11.27
2017-11-16T03:22:53.213Z,11.25
2017-11-16T03:23:19.339Z,11.23
2017-11-16T03:23:45.469Z,11.23
2017-11-16T03:24:11.595Z,11.26
2017-11-16T03:24:37.708Z,11.32
2017-11-16T03:25:03.832Z,11.29
2017-11-16T03:25:29.952Z,11.3
2017-11-16T03:25:56.076Z,11.29
2017-11-16T03:26:22.195Z,11.27
2017-11-16T03:26:48.313Z,11.32
2017-11-16T03:27:14.438Z,11.25
2017-11-16T03:27:40.564Z,11.29
2017-11-16T03:28:06.686Z,11.19
2017-11-16T03:28:32.817Z,11.26
2017-11-16T03:28:58.947Z,11.19
2017-11-16T03:29:25.065Z,11.27
2017-11-16T03:29:51.192Z,11.25
2017-11-16T03:30:17.313Z,11.29
2017-11-16T03:30:43.434Z,11.3
2017-11-16T03:31:09.561Z,11.25
2017-11-16T03:31:35.672Z,11.23
2017-11-16T03:32:01.796Z,11.19
2017-11-16T03:32:27.919Z,11.18
2017-11-16T03:32:54.058Z,11.19
2017-11-16T03:33:20.184Z,11.19
2017-11-16T03:33:46.337Z,11.22
2017-11-16T03:34:12.426Z,11.26
2017-11-16T03:34:38.553Z,11.25
2017-11-16T03:35:04.672Z,11.17
2017-11-16T03:35:30.788Z,11.23
2017-11-16T03:35:56.916Z,11.25
2017-11-16T03:36:23.035Z,11.35
2017-11-16T03:36:49.160Z,11.35
2017-11-16T03:37:15.286Z,11.32
2017-11-16T03:37:41.403Z,11.29
2017-11-16T03:38:07.522Z,11.32
2017-11-16T03:38:33.645Z,11.36
2017-11-16T03:38:59.764Z,11.44
2017-11-16T03:39:25.896Z,11.37
2017-11-16T03:39:52.011Z,11.36
2017-11-16T03:40:18.139Z,11.33
2017-11-16T03:40:44.277Z,11.35
2017-11-16T03:41:10.405Z,11.32
2017-11-16T03:41:36.541Z,11.23
2017-11-16T03:42:02.674Z,11.19
2017-11-16T03:42:28.792Z,11.25
2017-11-16T03:42:54.955Z,11.23
2017-11-16T03:43:21.078Z,11.17
2017-11-16T03:43:47.196Z,11.19
2017-11-16T03:44:13.316Z,11.14
2017-11-16T03:44:39.440Z,11.14
2017-11-16T03:45:05.563Z,11.25
2017-11-16T03:45:31.687Z,11.29
2017-11-16T03:45:57.808Z,11.23
2017-11-16T03:46:23.923Z,11.29
2017-11-16T03:46:50.044Z,11.3
2017-11-16T03:47:16.199Z,11.26
2017-11-16T03:47:42.316Z,11.22
2017-11-16T03:48:08.485Z,11.3
2017-11-16T03:48:34.650Z,11.35
2017-11-16T03:49:00.771Z,11.4
2017-11-16T03:49:26.914Z,11.36
2017-11-16T03:49:53.045Z,11.4
2017-11-16T03:50:19.161Z,11.32
2017-11-16T03:50:45.281Z,11.37
2017-11-16T03:51:11.422Z,11.37
2017-11-16T03:51:37.541Z,11.43
2017-11-16T03:52:03.680Z,11.4
2017-11-16T03:52:29.811Z,11.35
2017-11-16T03:52:55.934Z,11.3
2017-11-16T03:53:22.074Z,11.3
2017-11-16T03:53:48.201Z,11.32
2017-11-16T03:54:14.316Z,11.27
2017-11-16T03:54:40.439Z,11.29
2017-11-16T03:55:06.564Z,11.23
2017-11-16T03:55:32.682Z,11.25
2017-11-16T03:55:58.828Z,11.23
2017-11-16T03:56:24.953Z,11.25
2017-11-16T03:56:51.071Z,11.14
2017-11-16T03:57:17.187Z,11.23
2017-11-16T03:57:43.313Z,11.17
2017-11-16T03:58:09.437Z,11.19
2017-11-16T03:58:35.555Z,11.22
2017-11-16T03:59:01.721Z,11.23
2017-11-16T03:59:27.854Z,11.3
2017-11-16T03:59:53.972Z,11.19
2017-11-16T04:00:20.087Z,11.32
2017-11-16T04:00:46.207Z,11.27
2017-11-16T04:01:12.332Z,11.35
2017-11-16T04:01:38.447Z,11.22
2017-11-16T04:02:04.573Z,11.22
2017-11-16T04:02:30.712Z,11.23
2017-11-16T04:02:56.835Z,11.23
2017-11-16T04:03:22.988Z,11.27
2017-11-16T04:03:49.078Z,11.23
2017-11-16T04:04:15.197Z,11.26
2017-11-16T04:04:41.324Z,11.37
2017-11-16T04:05:07.445Z,11.43
2017-11-16T04:05:33.585Z,11.44
2017-11-16T04:05:59.706Z,11.4
2017-11-16T04:06:25.835Z,11.4
2017-11-16T04:06:51.956Z,11.32
2017-11-16T04:07:18.079Z,11.32
2017-11-16T04:07:44.199Z,11.35
2017-11-16T04:08:10.324Z,11.32
2017-11-16T04:08:36.449Z,11.33
2017-11-16T04:09:02.566Z,11.32
2017-11-16T04:09:28.692Z,11.3
2017-11-16T04:09:54.830Z,11.35
2017-11-16T04:10:20.935Z,11.35
2017-11-16T04:10:47.055Z,11.32
2017-11-16T04:11:13.174Z,11.37
2017-11-16T04:11:39.290Z,11.26
2017-11-16T04:12:05.417Z,11.33
2017-11-16T04:12:31.544Z,11.25
2017-11-16T04:12:57.661Z,11.26
2017-11-16T04:13:23.787Z,11.23
2017-11-16T04:13:49.912Z,11.25
2017-11-16T04:14:16.034Z,11.23
2017-11-16T04:14:42.175Z,11.3
2017-11-16T04:15:08.303Z,11.17
2017-11-16T04:15:34.428Z,11.3
2017-11-16T04:16:00.605Z,11.32
2017-11-16T04:16:26.728Z,11.3
2017-11-16T04:16:52.842Z,11.3
2017-11-16T04:17:18.969Z,11.33
2017-11-16T04:17:45.088Z,11.26
2017-11-16T04:18:11.207Z,11.22
2017-11-16T04:18:37.333Z,11.3
2017-11-16T04:19:03.459Z,11.4
2017-11-16T04:19:29.576Z,11.37
2017-11-16T04:19:55.696Z,11.27
2017-11-16T04:20:21.828Z,11.35
2017-11-16T04:20:47.946Z,11.33
2017-11-16T04:21:14.065Z,11.35
2017-11-16T04:21:40.182Z,11.29
2017-11-16T04:22:06.309Z,11.32
2017-11-16T04:22:32.446Z,11.27
2017-11-16T04:22:58.593Z,11.32
2017-11-16T04:23:24.738Z,11.23
2017-11-16T04:23:50.853Z,11.25
2017-11-16T04:24:16.983Z,11.25
2017-11-16T04:24:43.105Z,11.26
2017-11-16T04:25:09.226Z,11.19
2017-11-16T04:25:35.366Z,11.25
2017-11-16T04:26:01.493Z,11.26
2017-11-16T04:26:27.608Z,11.29
2017-11-16T04:26:53.732Z,11.22
2017-11-16T04:27:19.881Z,11.23
2017-11-16T04:27:45.997Z,11.25
2017-11-16T04:28:12.117Z,11.26
2017-11-16T04:28:38.256Z,11.29
2017-11-16T04:29:04.375Z,11.29
2017-11-16T04:29:30.520Z,11.27
2017-11-16T04:29:56.636Z,11.27
2017-11-16T04:30:22.761Z,11.26
2017-11-16T04:30:48.892Z,11.29
2017-11-16T04:31:15.013Z,11.27
2017-11-16T04:31:41.131Z,11.22
2017-11-16T04:32:07.261Z,11.27
2017-11-16T04:32:33.380Z,11.26
2017-11-16T04:32:59.501Z,11.26
2017-11-16T04:33:25.625Z,11.26
2017-11-16T04:33:51.784Z,11.23
2017-11-16T04:34:17.867Z,11.17
2017-11-16T04:34:43.991Z,11.22
2017-11-16T04:35:10.109Z,11.14
2017-11-16T04:35:36.229Z,11.26
2017-11-16T04:36:02.347Z,11.15
2017-11-16T04:36:28.476Z,11.17
2017-11-16T04:36:54.598Z,11.18
2017-11-16T04:37:20.737Z,11.19
2017-11-16T04:37:46.866Z,11.15
2017-11-16T04:38:12.984Z,11.18
2017-11-16T04:38:39.105Z,11.17
2017-11-16T04:39:05.227Z,11.15
2017-11-16T04:39:31.356Z,11.19
2017-11-16T04:39:57.471Z,11.23
2017-11-16T04:40:23.596Z,11.18
2017-11-16T04:40:49.716Z,11.19
2017-11-16T04:41:15.842Z,11.15
2017-11-16T04:41:41.967Z,11.14
2017-11-16T04:42:08.088Z,11.19
2017-11-16T04:42:34.207Z,11.18
2017-11-16T04:43:00.334Z,11.25
2017-11-16T04:43:26.465Z,11.29
2017-11-16T04:43:52.575Z,11.35
2017-11-16T04:44:18.704Z,11.26
2017-11-16T04:44:44.846Z,11.29
2017-11-16T04:45:10.968Z,11.22
2017-11-16T04:45:37.084Z,11.25
2017-11-16T04:46:03.203Z,11.14
2017-11-16T04:46:29.330Z,11.18
2017-11-16T04:46:55.448Z,11.19
2017-11-16T04:47:21.575Z,11.19
2017-11-16T04:47:47.702Z,11.19
2017-11-16T04:48:13.813Z,11.14
2017-11-16T04:48:39.963Z,11.25
2017-11-16T04:49:06.081Z,11.17
2017-11-16T04:49:32.200Z,11.25
2017-11-16T04:49:58.327Z,11.22
2017-11-16T04:50:24.452Z,11.23
2017-11-16T04:50:50.578Z,11.12
2017-11-16T04:51:16.696Z,11.19
2017-11-16T04:51:42.826Z,11.11
2017-11-16T04:52:08.943Z,11.19
2017-11-16T04:52:35.062Z,11.17
2017-11-16T04:53:01.187Z,11.26
2017-11-16T04:53:27.308Z,11.19
2017-11-16T04:53:53.433Z,11.27
2017-11-16T04:54:19.549Z,11.19
2017-11-16T04:54:45.663Z,11.17
2017-11-16T04:55:11.806Z,11.11
2017-11-16T04:55:37.950Z,11.25
2017-11-16T04:56:04.074Z,11.18
2017-11-16T04:56:30.201Z,11.14
2017-11-16T04:56:56.318Z,11.1
2017-11-16T04:57:22.437Z,11.08
2017-11-16T04:57:48.558Z,11.05
2017-11-16T04:58:14.677Z,11.08
2017-11-16T04:58:40.809Z,11.04
2017-11-16T04:59:06.928Z,11.1
2017-11-16T04:59:33.053Z,10.99
2017-11-16T04:59:59.166Z,10.97
2017-11-16T05:00:25.289Z,11
2017-11-16T05:00:51.409Z,11.05
2017-11-16T05:01:17.530Z,11.08
2017-11-16T05:01:43.654Z,11.02
2017-11-16T05:02:09.771Z,10.99
2017-11-16T05:02:35.895Z,11
2017-11-16T05:03:02.046Z,11.08
2017-11-16T05:03:28.137Z,11.04
2017-11-16T05:03:54.259Z,11.1
2017-11-16T05:04:20.381Z,11.18
2017-11-16T05:04:46.498Z,11.1
2017-11-16T05:05:12.618Z,11.11
2017-11-16T05:05:38.745Z,11.14
2017-11-16T05:06:04.864Z,11.07
2017-11-16T05:06:30.993Z,11
2017-11-16T05:06:57.111Z,11.14
2017-11-16T05:07:23.229Z,11.15
2017-11-16T05:07:49.349Z,11.04
2017-11-16T05:08:15.474Z,11.1
2017-11-16T05:08:41.595Z,11.05
2017-11-16T05:09:07.720Z,11.08
2017-11-16T05:09:33.847Z,10.99
2017-11-16T05:09:59.963Z,11.14
2017-11-16T05:10:26.090Z,11.08
2017-11-16T05:10:52.207Z,11
2017-11-16T05:11:18.326Z,11.02
2017-11-16T05:11:44.453Z,11.1
2017-11-16T05:12:10.572Z,11.12
2017-11-16T05:12:36.697Z,11.02
2017-11-16T05:13:02.842Z,11.02
2017-11-16T05:13:28.977Z,11.08
2017-11-16T05:13:55.105Z,11.04
2017-11-16T05:14:21.224Z,11
2017-11-16T05:14:47.348Z,10.99
2017-11-16T05:15:13.469Z,10.97
2017-11-16T05:15:39.593Z,10.96
2017-11-16T05:16:05.714Z,10.97
2017-11-16T05:16:31.837Z,11
2017-11-16T05:16:57.954Z,11.04
2017-11-16T05:17:24.081Z,11.1
2017-11-16T05:17:50.197Z,11
2017-11-16T05:18:16.325Z,10.99
2017-11-16T05:18:42.444Z,11.12
2017-11-16T05:19:08.568Z,11
2017-11-16T05:19:34.688Z,11.05
2017-11-16T05:20:00.806Z,11.02
2017-11-16T05:20:26.931Z,11.04
2017-11-16T05:20:53.054Z,11.08
2017-11-16T05:21:19.193Z,11.11
2017-11-16T05:21:45.316Z,11.11
2017-11-16T05:22:11.433Z,11.15
2017-11-16T05:22:37.559Z,11.05
2017-11-16T05:23:03.676Z,11.14
2017-11-16T05:23:29.798Z,11.15
2017-11-16T05:23:55.956Z,11.11
2017-11-16T05:24:22.070Z,11.07
2017-11-16T05:24:48.181Z,11.12
2017-11-16T05:25:14.306Z,10.99
2017-11-16T05:25:40.437Z,11.07
2017-11-16T05:26:06.571Z,11.07
2017-11-16T05:26:32.692Z,11.11
2017-11-16T05:26:58.815Z,11.11
2017-11-16T05:27:24.941Z,11.14
2017-11-16T05:27:51.104Z,11.14
2017-11-16T05:28:17.254Z,11.11
2017-11-16T05:28:43.343Z,11.1
2017-11-16T05:29:09.472Z,11.12
2017-11-16T05:29:35.624Z,10.99
2017-11-16T05:30:01.734Z,11.17
2017-11-16T05:30:27.852Z,11.19
2017-11-16T05:30:53.976Z,11.22
2017-11-16T05:31:20.088Z,11.19
2017-11-16T05:31:46.243Z,11.23
2017-11-16T05:32:12.366Z,11.29
2017-11-16T05:32:38.520Z,11.26
2017-11-16T05:33:04.631Z,11.26
2017-11-16T05:33:30.756Z,11.18
2017-11-16T05:33:56.882Z,11.15
2017-11-16T05:34:23.001Z,11.17
2017-11-16T05:34:49.119Z,11.14
2017-11-16T05:35:15.261Z,11.1
2017-11-16T05:35:41.371Z,11.15
2017-11-16T05:36:07.485Z,11.04
2017-11-16T05:36:33.616Z,11.05
2017-11-16T05:36:59.739Z,11.04
2017-11-16T05:37:25.852Z,11
2017-11-16T05:37:51.975Z,11.14
2017-11-16T05:38:18.102Z,11.07
2017-11-16T05:38:44.217Z,11.08